sensor_id;sensor_type;location;lat;lon;timestamp;temperature;humidity
7598;DHT22;3840;59.32098800;18.06423600;2024-03-08T00:00:14;-0.30;99.90
7598;DHT22;3840;59.32098800;18.06423600;2024-03-08T00:02:44;-0.20;99.90
7598;DHT22;3840;59.32098800;18.06423600;2024-03-08T00:05:10;-0.10;99.90
7598;DHT22;3840;59.32098800;18.06423600;2024-03-08T00:07:36;0.00;99.90
7598;DHT22;3840;59.32098800;18.06423600;2024-03-08T00:10:07;0.10;99.90
7598;DHT22;3840;59.32098800;18.06423600;2024-03-08T00:12:39;0.10;99.90
7598;DHT22;3840;59.32098800;18.06423600;2024-03-08T00:15:08;0.10;99.90
7598;DHT22;3840;59.32098800;18.06423600;2024-03-08T00:17:34;0.10;99.90
7598;DHT22;3840;59.32098800;18.06423600;2024-03-08T00:20:00;0.20;99.90
7598;DHT22;3840;59.32098800;18.06423600;2024-03-08T00:22:26;0.20;99.90
7598;DHT22;3840;59.32098800;18.06423600;2024-03-08T00:24:51;1.30;99.90
7598;DHT22;3840;59.32098800;18.06423600;2024-03-08T00:27:17;0.10;99.90
7598;DHT22;3840;59.32098800;18.06423600;2024-03-08T00:29:46;1.30;99.90
7598;DHT22;3840;59.32098800;18.06423600;2024-03-08T00:32:12;0.10;99.90
7598;DHT22;3840;59.32098800;18.06423600;2024-03-08T00:34:38;0.10;99.90
7598;DHT22;3840;59.32098800;18.06423600;2024-03-08T00:37:04;0.10;99.90
7598;DHT22;3840;59.32098800;18.06423600;2024-03-08T00:39:30;0.10;99.90
7598;DHT22;3840;59.32098800;18.06423600;2024-03-08T00:41:56;0.00;99.90
7598;DHT22;3840;59.32098800;18.06423600;2024-03-08T00:44:21;0.00;99.90
7598;DHT22;3840;59.32098800;18.06423600;2024-03-08T00:46:47;0.00;99.90
7598;DHT22;3840;59.32098800;18.06423600;2024-03-08T00:49:13;1.10;99.90
7598;DHT22;3840;59.32098800;18.06423600;2024-03-08T00:51:38;0.10;99.90
7598;DHT22;3840;59.32098800;18.06423600;2024-03-08T00:54:04;0.10;99.90
7598;DHT22;3840;59.32098800;18.06423600;2024-03-08T00:56:30;0.10;99.90
7598;DHT22;3840;59.32098800;18.06423600;2024-03-08T00:58:55;0.10;99.90
7598;DHT22;3840;59.32098800;18.06423600;2024-03-08T01:01:21;0.10;99.90
7598;DHT22;3840;59.32098800;18.06423600;2024-03-08T01:03:47;0.00;99.90
7598;DHT22;3840;59.32098800;18.06423600;2024-03-08T01:06:14;0.00;99.90
7598;DHT22;3840;59.32098800;18.06423600;2024-03-08T01:08:40;0.00;99.90
7598;DHT22;3840;59.32098800;18.06423600;2024-03-08T01:11:08;0.00;99.90
7598;DHT22;3840;59.32098800;18.06423600;2024-03-08T01:13:34;0.00;99.90
7598;DHT22;3840;59.32098800;18.06423600;2024-03-08T01:16:00;0.10;99.90
7598;DHT22;3840;59.32098800;18.06423600;2024-03-08T01:18:26;0.10;99.90
7598;DHT22;3840;59.32098800;18.06423600;2024-03-08T01:20:52;1.40;99.90
7598;DHT22;3840;59.32098800;18.06423600;2024-03-08T01:23:17;0.10;99.90
7598;DHT22;3840;59.32098800;18.06423600;2024-03-08T01:25:43;0.10;99.90
7598;DHT22;3840;59.32098800;18.06423600;2024-03-08T01:28:09;0.10;99.90
7598;DHT22;3840;59.32098800;18.06423600;2024-03-08T01:30:35;0.10;99.90
7598;DHT22;3840;59.32098800;18.06423600;2024-03-08T01:33:03;0.00;99.90
7598;DHT22;3840;59.32098800;18.06423600;2024-03-08T01:35:28;0.00;99.90
7598;DHT22;3840;59.32098800;18.06423600;2024-03-08T01:37:54;0.10;99.90
7598;DHT22;3840;59.32098800;18.06423600;2024-03-08T01:40:20;0.00;99.90
7598;DHT22;3840;59.32098800;18.06423600;2024-03-08T01:42:46;-0.10;99.90
7598;DHT22;3840;59.32098800;18.06423600;2024-03-08T01:45:13;-0.10;99.90
7598;DHT22;3840;59.32098800;18.06423600;2024-03-08T01:47:39;-0.10;99.90
7598;DHT22;3840;59.32098800;18.06423600;2024-03-08T01:50:05;-0.10;99.90
7598;DHT22;3840;59.32098800;18.06423600;2024-03-08T01:52:33;-0.10;99.90
7598;DHT22;3840;59.32098800;18.06423600;2024-03-08T01:55:03;-0.20;99.90
7598;DHT22;3840;59.32098800;18.06423600;2024-03-08T01:57:32;-0.20;99.90
7598;DHT22;3840;59.32098800;18.06423600;2024-03-08T02:00:01;-0.20;99.90
7598;DHT22;3840;59.32098800;18.06423600;2024-03-08T02:02:32;-0.20;99.90
7598;DHT22;3840;59.32098800;18.06423600;2024-03-08T02:04:58;-0.30;99.90
7598;DHT22;3840;59.32098800;18.06423600;2024-03-08T02:07:25;-0.30;99.90
7598;DHT22;3840;59.32098800;18.06423600;2024-03-08T02:09:52;-0.30;99.90
7598;DHT22;3840;59.32098800;18.06423600;2024-03-08T02:12:18;-0.20;99.90
7598;DHT22;3840;59.32098800;18.06423600;2024-03-08T02:14:46;-1.30;99.90
7598;DHT22;3840;59.32098800;18.06423600;2024-03-08T02:17:12;-0.30;99.90
7598;DHT22;3840;59.32098800;18.06423600;2024-03-08T02:19:38;0.30;99.90
7598;DHT22;3840;59.32098800;18.06423600;2024-03-08T02:22:04;-0.30;99.90
7598;DHT22;3840;59.32098800;18.06423600;2024-03-08T02:24:31;-0.40;99.90
7598;DHT22;3840;59.32098800;18.06423600;2024-03-08T02:26:57;-0.40;99.90
7598;DHT22;3840;59.32098800;18.06423600;2024-03-08T02:29:24;-0.40;99.90
7598;DHT22;3840;59.32098800;18.06423600;2024-03-08T02:31:53;-0.30;99.90
7598;DHT22;3840;59.32098800;18.06423600;2024-03-08T02:34:18;-0.30;99.90
7598;DHT22;3840;59.32098800;18.06423600;2024-03-08T02:36:45;-0.50;99.90
7598;DHT22;3840;59.32098800;18.06423600;2024-03-08T02:39:12;0.80;99.90
7598;DHT22;3840;59.32098800;18.06423600;2024-03-08T02:41:38;-0.30;99.90
7598;DHT22;3840;59.32098800;18.06423600;2024-03-08T02:44:03;-0.50;99.90
7598;DHT22;3840;59.32098800;18.06423600;2024-03-08T02:46:29;-0.40;99.90
7598;DHT22;3840;59.32098800;18.06423600;2024-03-08T02:48:55;-0.40;99.90
7598;DHT22;3840;59.32098800;18.06423600;2024-03-08T02:51:21;-0.50;99.90
7598;DHT22;3840;59.32098800;18.06423600;2024-03-08T02:53:47;-0.50;99.90
7598;DHT22;3840;59.32098800;18.06423600;2024-03-08T02:56:14;-0.60;99.90
7598;DHT22;3840;59.32098800;18.06423600;2024-03-08T02:58:42;-0.50;99.90
7598;DHT22;3840;59.32098800;18.06423600;2024-03-08T03:01:08;0.50;99.90
7598;DHT22;3840;59.32098800;18.06423600;2024-03-08T03:03:35;-0.50;99.90
7598;DHT22;3840;59.32098800;18.06423600;2024-03-08T03:06:01;-0.50;99.90
7598;DHT22;3840;59.32098800;18.06423600;2024-03-08T03:08:27;-0.50;99.90
7598;DHT22;3840;59.32098800;18.06423600;2024-03-08T03:10:52;0.40;99.90
7598;DHT22;3840;59.32098800;18.06423600;2024-03-08T03:13:18;1.00;99.90
7598;DHT22;3840;59.32098800;18.06423600;2024-03-08T03:15:46;-0.50;99.90
7598;DHT22;3840;59.32098800;18.06423600;2024-03-08T03:18:12;-0.50;99.90
7598;DHT22;3840;59.32098800;18.06423600;2024-03-08T03:20:37;-0.30;99.90
7598;DHT22;3840;59.32098800;18.06423600;2024-03-08T03:23:08;-0.40;99.90
7598;DHT22;3840;59.32098800;18.06423600;2024-03-08T03:25:34;0.70;99.90
7598;DHT22;3840;59.32098800;18.06423600;2024-03-08T03:28:01;0.30;99.90
7598;DHT22;3840;59.32098800;18.06423600;2024-03-08T03:30:27;-0.40;99.90
7598;DHT22;3840;59.32098800;18.06423600;2024-03-08T03:33:01;-0.50;99.90
7598;DHT22;3840;59.32098800;18.06423600;2024-03-08T03:35:30;-0.50;99.90
7598;DHT22;3840;59.32098800;18.06423600;2024-03-08T03:37:56;-0.50;99.90
7598;DHT22;3840;59.32098800;18.06423600;2024-03-08T03:40:34;0.80;99.90
7598;DHT22;3840;59.32098800;18.06423600;2024-03-08T03:43:00;-0.50;99.90
7598;DHT22;3840;59.32098800;18.06423600;2024-03-08T03:45:26;-0.60;99.90
7598;DHT22;3840;59.32098800;18.06423600;2024-03-08T03:47:52;-0.60;99.90
7598;DHT22;3840;59.32098800;18.06423600;2024-03-08T03:50:19;-0.60;99.90
7598;DHT22;3840;59.32098800;18.06423600;2024-03-08T03:52:46;-0.70;99.90
7598;DHT22;3840;59.32098800;18.06423600;2024-03-08T03:55:12;0.70;99.90
7598;DHT22;3840;59.32098800;18.06423600;2024-03-08T03:57:39;-0.30;99.90
7598;DHT22;3840;59.32098800;18.06423600;2024-03-08T04:00:07;-0.70;99.90
7598;DHT22;3840;59.32098800;18.06423600;2024-03-08T04:02:38;-0.70;99.90
7598;DHT22;3840;59.32098800;18.06423600;2024-03-08T04:05:05;-0.90;99.90
7598;DHT22;3840;59.32098800;18.06423600;2024-03-08T04:07:32;-0.70;99.90
7598;DHT22;3840;59.32098800;18.06423600;2024-03-08T04:09:57;-0.70;99.90
7598;DHT22;3840;59.32098800;18.06423600;2024-03-08T04:12:23;-0.60;99.90
7598;DHT22;3840;59.32098800;18.06423600;2024-03-08T04:14:49;-0.60;99.90
7598;DHT22;3840;59.32098800;18.06423600;2024-03-08T04:17:15;-0.80;99.90
7598;DHT22;3840;59.32098800;18.06423600;2024-03-08T04:19:42;-0.70;99.90
7598;DHT22;3840;59.32098800;18.06423600;2024-03-08T04:22:08;-0.70;99.90
7598;DHT22;3840;59.32098800;18.06423600;2024-03-08T04:24:34;-0.80;99.90
7598;DHT22;3840;59.32098800;18.06423600;2024-03-08T04:26:59;-0.80;99.90
7598;DHT22;3840;59.32098800;18.06423600;2024-03-08T04:29:25;-0.80;99.90
7598;DHT22;3840;59.32098800;18.06423600;2024-03-08T04:31:51;-0.80;99.90
7598;DHT22;3840;59.32098800;18.06423600;2024-03-08T04:34:20;-0.80;99.90
7598;DHT22;3840;59.32098800;18.06423600;2024-03-08T04:36:47;-0.80;99.90
7598;DHT22;3840;59.32098800;18.06423600;2024-03-08T04:39:13;-0.80;99.90
7598;DHT22;3840;59.32098800;18.06423600;2024-03-08T04:41:39;-0.80;99.90
7598;DHT22;3840;59.32098800;18.06423600;2024-03-08T04:44:05;-0.80;99.90
7598;DHT22;3840;59.32098800;18.06423600;2024-03-08T04:46:31;-0.90;99.90
7598;DHT22;3840;59.32098800;18.06423600;2024-03-08T04:48:57;-0.80;99.90
7598;DHT22;3840;59.32098800;18.06423600;2024-03-08T04:51:24;-1.00;99.90
7598;DHT22;3840;59.32098800;18.06423600;2024-03-08T04:53:50;-0.90;99.90
7598;DHT22;3840;59.32098800;18.06423600;2024-03-08T04:56:16;0.40;99.90
7598;DHT22;3840;59.32098800;18.06423600;2024-03-08T04:58:41;0.40;99.90
7598;DHT22;3840;59.32098800;18.06423600;2024-03-08T05:01:07;-0.30;99.90
7598;DHT22;3840;59.32098800;18.06423600;2024-03-08T05:03:36;-0.90;99.90
7598;DHT22;3840;59.32098800;18.06423600;2024-03-08T05:06:02;-0.70;99.90
7598;DHT22;3840;59.32098800;18.06423600;2024-03-08T05:08:27;-0.90;99.90
7598;DHT22;3840;59.32098800;18.06423600;2024-03-08T05:10:53;-0.70;99.90
7598;DHT22;3840;59.32098800;18.06423600;2024-03-08T05:13:19;-1.00;99.90
7598;DHT22;3840;59.32098800;18.06423600;2024-03-08T05:15:48;-1.00;99.90
7598;DHT22;3840;59.32098800;18.06423600;2024-03-08T05:18:15;-1.00;99.90
7598;DHT22;3840;59.32098800;18.06423600;2024-03-08T05:20:40;-1.00;99.90
7598;DHT22;3840;59.32098800;18.06423600;2024-03-08T05:23:07;-1.00;99.90
7598;DHT22;3840;59.32098800;18.06423600;2024-03-08T05:25:33;-0.90;99.90
7598;DHT22;3840;59.32098800;18.06423600;2024-03-08T05:27:59;-1.00;99.90
7598;DHT22;3840;59.32098800;18.06423600;2024-03-08T05:30:25;-1.00;99.90
7598;DHT22;3840;59.32098800;18.06423600;2024-03-08T05:32:50;-1.00;99.90
7598;DHT22;3840;59.32098800;18.06423600;2024-03-08T05:35:16;-0.80;99.90
7598;DHT22;3840;59.32098800;18.06423600;2024-03-08T05:37:42;-1.00;99.90
7598;DHT22;3840;59.32098800;18.06423600;2024-03-08T05:40:08;-0.80;99.90
7598;DHT22;3840;59.32098800;18.06423600;2024-03-08T05:42:35;-1.00;99.90
7598;DHT22;3840;59.32098800;18.06423600;2024-03-08T05:45:04;-0.40;99.90
7598;DHT22;3840;59.32098800;18.06423600;2024-03-08T05:47:31;-1.00;99.90
7598;DHT22;3840;59.32098800;18.06423600;2024-03-08T05:49:59;-0.70;99.90
7598;DHT22;3840;59.32098800;18.06423600;2024-03-08T05:52:25;-0.80;99.90
7598;DHT22;3840;59.32098800;18.06423600;2024-03-08T05:54:51;-0.90;99.90
7598;DHT22;3840;59.32098800;18.06423600;2024-03-08T05:57:17;-0.90;99.90
7598;DHT22;3840;59.32098800;18.06423600;2024-03-08T05:59:43;-0.90;99.90
7598;DHT22;3840;59.32098800;18.06423600;2024-03-08T06:02:08;-1.00;99.90
7598;DHT22;3840;59.32098800;18.06423600;2024-03-08T06:04:34;-0.90;99.90
7598;DHT22;3840;59.32098800;18.06423600;2024-03-08T06:07:00;-0.90;99.90
7598;DHT22;3840;59.32098800;18.06423600;2024-03-08T06:09:26;-0.50;99.90
7598;DHT22;3840;59.32098800;18.06423600;2024-03-08T06:11:52;-0.20;99.90
7598;DHT22;3840;59.32098800;18.06423600;2024-03-08T06:14:19;-0.80;99.90
7598;DHT22;3840;59.32098800;18.06423600;2024-03-08T06:16:45;-0.80;99.90
7598;DHT22;3840;59.32098800;18.06423600;2024-03-08T06:19:12;0.20;99.90
7598;DHT22;3840;59.32098800;18.06423600;2024-03-08T06:21:38;-0.70;99.90
7598;DHT22;3840;59.32098800;18.06423600;2024-03-08T06:24:04;-0.70;99.90
7598;DHT22;3840;59.32098800;18.06423600;2024-03-08T06:26:30;-0.70;99.90
7598;DHT22;3840;59.32098800;18.06423600;2024-03-08T06:28:56;-0.40;99.90
7598;DHT22;3840;59.32098800;18.06423600;2024-03-08T06:31:22;-0.60;99.90
7598;DHT22;3840;59.32098800;18.06423600;2024-03-08T06:33:48;0.10;99.90
7598;DHT22;3840;59.32098800;18.06423600;2024-03-08T06:36:17;-0.40;99.90
7598;DHT22;3840;59.32098800;18.06423600;2024-03-08T06:38:47;-0.60;99.90
7598;DHT22;3840;59.32098800;18.06423600;2024-03-08T06:41:13;-0.60;99.90
7598;DHT22;3840;59.32098800;18.06423600;2024-03-08T06:43:45;-0.60;99.90
7598;DHT22;3840;59.32098800;18.06423600;2024-03-08T06:46:11;-0.50;99.90
7598;DHT22;3840;59.32098800;18.06423600;2024-03-08T06:48:40;-0.50;99.90
7598;DHT22;3840;59.32098800;18.06423600;2024-03-08T06:51:05;-0.40;99.90
7598;DHT22;3840;59.32098800;18.06423600;2024-03-08T06:53:31;-0.50;99.90
7598;DHT22;3840;59.32098800;18.06423600;2024-03-08T06:55:58;-0.30;99.90
7598;DHT22;3840;59.32098800;18.06423600;2024-03-08T06:58:24;-0.40;99.90
7598;DHT22;3840;59.32098800;18.06423600;2024-03-08T07:00:50;-0.30;99.90
7598;DHT22;3840;59.32098800;18.06423600;2024-03-08T07:03:18;-0.40;99.90
7598;DHT22;3840;59.32098800;18.06423600;2024-03-08T07:05:44;-0.30;99.90
7598;DHT22;3840;59.32098800;18.06423600;2024-03-08T07:08:10;-0.10;99.90
7598;DHT22;3840;59.32098800;18.06423600;2024-03-08T07:10:39;-0.50;99.90
7598;DHT22;3840;59.32098800;18.06423600;2024-03-08T07:13:07;-0.20;99.90
7598;DHT22;3840;59.32098800;18.06423600;2024-03-08T07:15:33;-0.20;99.90
7598;DHT22;3840;59.32098800;18.06423600;2024-03-08T07:17:58;-0.10;99.90
7598;DHT22;3840;59.32098800;18.06423600;2024-03-08T07:20:26;-0.10;99.90
7598;DHT22;3840;59.32098800;18.06423600;2024-03-08T07:22:54;0.00;99.90
7598;DHT22;3840;59.32098800;18.06423600;2024-03-08T07:25:20;0.00;99.90
7598;DHT22;3840;59.32098800;18.06423600;2024-03-08T07:27:50;0.10;99.90
7598;DHT22;3840;59.32098800;18.06423600;2024-03-08T07:30:17;1.30;99.90
7598;DHT22;3840;59.32098800;18.06423600;2024-03-08T07:33:03;0.60;99.90
7598;DHT22;3840;59.32098800;18.06423600;2024-03-08T07:35:29;0.20;99.90
7598;DHT22;3840;59.32098800;18.06423600;2024-03-08T07:37:56;0.40;99.90
7598;DHT22;3840;59.32098800;18.06423600;2024-03-08T07:40:22;1.50;99.90
7598;DHT22;3840;59.32098800;18.06423600;2024-03-08T07:42:49;0.30;99.90
7598;DHT22;3840;59.32098800;18.06423600;2024-03-08T07:45:15;0.30;99.90
7598;DHT22;3840;59.32098800;18.06423600;2024-03-08T07:47:41;0.30;99.90
7598;DHT22;3840;59.32098800;18.06423600;2024-03-08T07:50:07;0.30;99.90
7598;DHT22;3840;59.32098800;18.06423600;2024-03-08T07:52:36;0.40;99.90
7598;DHT22;3840;59.32098800;18.06423600;2024-03-08T07:55:05;1.30;99.90
7598;DHT22;3840;59.32098800;18.06423600;2024-03-08T07:57:31;0.40;99.90
7598;DHT22;3840;59.32098800;18.06423600;2024-03-08T07:59:57;0.40;99.90
7598;DHT22;3840;59.32098800;18.06423600;2024-03-08T08:02:23;0.40;99.90
7598;DHT22;3840;59.32098800;18.06423600;2024-03-08T08:04:49;1.40;99.90
7598;DHT22;3840;59.32098800;18.06423600;2024-03-08T08:07:15;0.40;99.90
7598;DHT22;3840;59.32098800;18.06423600;2024-03-08T08:09:41;0.50;99.90
7598;DHT22;3840;59.32098800;18.06423600;2024-03-08T08:12:08;0.50;99.90
7598;DHT22;3840;59.32098800;18.06423600;2024-03-08T08:14:38;0.50;99.90
7598;DHT22;3840;59.32098800;18.06423600;2024-03-08T08:17:04;0.50;99.90
7598;DHT22;3840;59.32098800;18.06423600;2024-03-08T08:19:31;0.50;99.90
7598;DHT22;3840;59.32098800;18.06423600;2024-03-08T08:21:57;0.60;99.90
7598;DHT22;3840;59.32098800;18.06423600;2024-03-08T08:24:23;1.70;99.90
7598;DHT22;3840;59.32098800;18.06423600;2024-03-08T08:26:49;0.70;99.90
7598;DHT22;3840;59.32098800;18.06423600;2024-03-08T08:29:14;0.70;99.90
7598;DHT22;3840;59.32098800;18.06423600;2024-03-08T08:31:40;0.80;99.90
7598;DHT22;3840;59.32098800;18.06423600;2024-03-08T08:34:06;1.90;99.90
7598;DHT22;3840;59.32098800;18.06423600;2024-03-08T08:36:34;1.00;99.90
7598;DHT22;3840;59.32098800;18.06423600;2024-03-08T08:39:00;0.80;99.90
7598;DHT22;3840;59.32098800;18.06423600;2024-03-08T08:41:28;0.80;99.90
7598;DHT22;3840;59.32098800;18.06423600;2024-03-08T08:43:54;0.90;99.90
7598;DHT22;3840;59.32098800;18.06423600;2024-03-08T08:46:20;2.00;99.90
7598;DHT22;3840;59.32098800;18.06423600;2024-03-08T08:48:46;1.00;99.90
7598;DHT22;3840;59.32098800;18.06423600;2024-03-08T08:51:12;1.00;99.90
7598;DHT22;3840;59.32098800;18.06423600;2024-03-08T08:53:42;1.10;99.90
7598;DHT22;3840;59.32098800;18.06423600;2024-03-08T08:56:12;2.30;99.90
7598;DHT22;3840;59.32098800;18.06423600;2024-03-08T08:58:44;1.20;99.90
7598;DHT22;3840;59.32098800;18.06423600;2024-03-08T09:01:10;1.20;99.90
7598;DHT22;3840;59.32098800;18.06423600;2024-03-08T09:03:37;1.30;99.90
7598;DHT22;3840;59.32098800;18.06423600;2024-03-08T09:06:07;1.30;99.90
7598;DHT22;3840;59.32098800;18.06423600;2024-03-08T09:08:38;1.40;99.90
7598;DHT22;3840;59.32098800;18.06423600;2024-03-08T09:11:04;1.40;99.90
7598;DHT22;3840;59.32098800;18.06423600;2024-03-08T09:13:30;1.50;99.90
7598;DHT22;3840;59.32098800;18.06423600;2024-03-08T09:15:56;1.80;99.90
7598;DHT22;3840;59.32098800;18.06423600;2024-03-08T09:18:22;1.60;99.90
7598;DHT22;3840;59.32098800;18.06423600;2024-03-08T09:20:49;1.60;99.90
7598;DHT22;3840;59.32098800;18.06423600;2024-03-08T09:23:15;1.70;99.90
7598;DHT22;3840;59.32098800;18.06423600;2024-03-08T09:25:42;1.70;99.90
7598;DHT22;3840;59.32098800;18.06423600;2024-03-08T09:28:09;3.20;99.90
7598;DHT22;3840;59.32098800;18.06423600;2024-03-08T09:30:37;1.80;99.90
7598;DHT22;3840;59.32098800;18.06423600;2024-03-08T09:33:04;1.70;99.90
7598;DHT22;3840;59.32098800;18.06423600;2024-03-08T09:35:30;1.90;99.90
7598;DHT22;3840;59.32098800;18.06423600;2024-03-08T09:37:55;3.20;99.90
7598;DHT22;3840;59.32098800;18.06423600;2024-03-08T09:40:21;2.10;99.90
7598;DHT22;3840;59.32098800;18.06423600;2024-03-08T09:42:51;2.10;99.90
7598;DHT22;3840;59.32098800;18.06423600;2024-03-08T09:45:20;2.50;99.90
7598;DHT22;3840;59.32098800;18.06423600;2024-03-08T09:47:47;2.20;99.90
7598;DHT22;3840;59.32098800;18.06423600;2024-03-08T09:50:14;2.30;99.90
7598;DHT22;3840;59.32098800;18.06423600;2024-03-08T09:52:41;2.30;99.90
7598;DHT22;3840;59.32098800;18.06423600;2024-03-08T09:55:10;2.40;99.90
7598;DHT22;3840;59.32098800;18.06423600;2024-03-08T09:57:40;2.40;99.90
7598;DHT22;3840;59.32098800;18.06423600;2024-03-08T10:00:06;3.00;99.90
7598;DHT22;3840;59.32098800;18.06423600;2024-03-08T10:02:50;2.40;99.90
7598;DHT22;3840;59.32098800;18.06423600;2024-03-08T10:05:18;2.50;99.90
7598;DHT22;3840;59.32098800;18.06423600;2024-03-08T10:07:44;2.50;99.90
7598;DHT22;3840;59.32098800;18.06423600;2024-03-08T10:10:09;2.50;99.90
7598;DHT22;3840;59.32098800;18.06423600;2024-03-08T10:12:38;2.50;99.90
7598;DHT22;3840;59.32098800;18.06423600;2024-03-08T10:15:09;2.60;99.90
7598;DHT22;3840;59.32098800;18.06423600;2024-03-08T10:17:35;2.60;99.90
7598;DHT22;3840;59.32098800;18.06423600;2024-03-08T10:20:01;2.70;99.90
7598;DHT22;3840;59.32098800;18.06423600;2024-03-08T10:22:27;2.80;99.90
7598;DHT22;3840;59.32098800;18.06423600;2024-03-08T10:24:55;2.80;99.90
7598;DHT22;3840;59.32098800;18.06423600;2024-03-08T10:27:20;2.80;99.90
7598;DHT22;3840;59.32098800;18.06423600;2024-03-08T10:29:50;3.30;99.90
7598;DHT22;3840;59.32098800;18.06423600;2024-03-08T10:32:17;2.90;99.90
7598;DHT22;3840;59.32098800;18.06423600;2024-03-08T10:34:43;3.00;99.90
7598;DHT22;3840;59.32098800;18.06423600;2024-03-08T10:37:14;3.00;99.90
7598;DHT22;3840;59.32098800;18.06423600;2024-03-08T10:39:46;3.10;99.90
7598;DHT22;3840;59.32098800;18.06423600;2024-03-08T10:42:27;3.10;99.90
7598;DHT22;3840;59.32098800;18.06423600;2024-03-08T10:45:04;3.00;99.90
7598;DHT22;3840;59.32098800;18.06423600;2024-03-08T10:47:34;3.10;99.90
7598;DHT22;3840;59.32098800;18.06423600;2024-03-08T10:50:14;3.20;99.90
7598;DHT22;3840;59.32098800;18.06423600;2024-03-08T10:55:40;3.20;99.90
7598;DHT22;3840;59.32098800;18.06423600;2024-03-08T10:58:08;3.40;99.90
7598;DHT22;3840;59.32098800;18.06423600;2024-03-08T11:00:35;3.20;99.90
7598;DHT22;3840;59.32098800;18.06423600;2024-03-08T11:03:03;3.30;99.90
7598;DHT22;3840;59.32098800;18.06423600;2024-03-08T11:05:39;3.30;99.90
7598;DHT22;3840;59.32098800;18.06423600;2024-03-08T11:10:53;3.40;99.90
7598;DHT22;3840;59.32098800;18.06423600;2024-03-08T11:13:40;3.40;99.90
7598;DHT22;3840;59.32098800;18.06423600;2024-03-08T11:16:10;3.50;99.90
7598;DHT22;3840;59.32098800;18.06423600;2024-03-08T11:18:37;3.50;99.90
7598;DHT22;3840;59.32098800;18.06423600;2024-03-08T11:21:08;3.50;99.90
7598;DHT22;3840;59.32098800;18.06423600;2024-03-08T11:23:38;3.60;99.90
7598;DHT22;3840;59.32098800;18.06423600;2024-03-08T11:26:21;3.60;99.90
7598;DHT22;3840;59.32098800;18.06423600;2024-03-08T11:28:49;3.70;99.90
7598;DHT22;3840;59.32098800;18.06423600;2024-03-08T11:31:24;3.80;99.90
7598;DHT22;3840;59.32098800;18.06423600;2024-03-08T11:33:51;3.80;99.90
7598;DHT22;3840;59.32098800;18.06423600;2024-03-08T11:36:23;3.80;99.90
7598;DHT22;3840;59.32098800;18.06423600;2024-03-08T11:38:51;3.90;99.90
7598;DHT22;3840;59.32098800;18.06423600;2024-03-08T11:41:19;3.90;99.90
7598;DHT22;3840;59.32098800;18.06423600;2024-03-08T11:43:45;3.80;99.90
7598;DHT22;3840;59.32098800;18.06423600;2024-03-08T11:46:13;3.90;99.90
7598;DHT22;3840;59.32098800;18.06423600;2024-03-08T11:48:40;4.00;99.90
7598;DHT22;3840;59.32098800;18.06423600;2024-03-08T11:51:11;4.00;99.90
7598;DHT22;3840;59.32098800;18.06423600;2024-03-08T11:53:40;3.90;99.90
7598;DHT22;3840;59.32098800;18.06423600;2024-03-08T11:56:13;3.90;99.90
7598;DHT22;3840;59.32098800;18.06423600;2024-03-08T11:58:40;3.90;99.90
7598;DHT22;3840;59.32098800;18.06423600;2024-03-08T12:01:07;3.90;99.90
7598;DHT22;3840;59.32098800;18.06423600;2024-03-08T12:03:38;3.90;99.90
7598;DHT22;3840;59.32098800;18.06423600;2024-03-08T12:06:04;3.90;99.90
7598;DHT22;3840;59.32098800;18.06423600;2024-03-08T12:08:33;4.00;99.90
7598;DHT22;3840;59.32098800;18.06423600;2024-03-08T12:10:58;4.00;99.90
7598;DHT22;3840;59.32098800;18.06423600;2024-03-08T12:13:28;4.00;99.90
7598;DHT22;3840;59.32098800;18.06423600;2024-03-08T12:15:58;4.00;99.90
7598;DHT22;3840;59.32098800;18.06423600;2024-03-08T12:18:26;4.00;99.90
7598;DHT22;3840;59.32098800;18.06423600;2024-03-08T12:21:04;4.00;99.90
7598;DHT22;3840;59.32098800;18.06423600;2024-03-08T12:23:33;4.10;99.90
7598;DHT22;3840;59.32098800;18.06423600;2024-03-08T12:26:18;4.10;99.90
7598;DHT22;3840;59.32098800;18.06423600;2024-03-08T12:28:48;4.20;99.90
7598;DHT22;3840;59.32098800;18.06423600;2024-03-08T12:31:17;4.20;99.90
7598;DHT22;3840;59.32098800;18.06423600;2024-03-08T12:33:49;4.20;99.90
7598;DHT22;3840;59.32098800;18.06423600;2024-03-08T12:36:17;4.20;99.90
7598;DHT22;3840;59.32098800;18.06423600;2024-03-08T12:38:46;4.20;99.90
7598;DHT22;3840;59.32098800;18.06423600;2024-03-08T12:41:16;4.20;99.90
7598;DHT22;3840;59.32098800;18.06423600;2024-03-08T12:43:45;4.10;99.90
7598;DHT22;3840;59.32098800;18.06423600;2024-03-08T12:46:15;4.10;99.90
7598;DHT22;3840;59.32098800;18.06423600;2024-03-08T12:48:42;4.10;99.90
7598;DHT22;3840;59.32098800;18.06423600;2024-03-08T12:51:12;4.10;99.90
7598;DHT22;3840;59.32098800;18.06423600;2024-03-08T12:53:41;4.30;99.90
7598;DHT22;3840;59.32098800;18.06423600;2024-03-08T12:56:10;4.30;99.90
7598;DHT22;3840;59.32098800;18.06423600;2024-03-08T12:58:36;4.20;99.90
7598;DHT22;3840;59.32098800;18.06423600;2024-03-08T13:01:03;4.30;99.90
7598;DHT22;3840;59.32098800;18.06423600;2024-03-08T13:03:36;4.20;99.90
7598;DHT22;3840;59.32098800;18.06423600;2024-03-08T13:06:03;4.20;99.90
7598;DHT22;3840;59.32098800;18.06423600;2024-03-08T13:08:34;4.20;99.90
7598;DHT22;3840;59.32098800;18.06423600;2024-03-08T13:11:01;4.20;99.90
7598;DHT22;3840;59.32098800;18.06423600;2024-03-08T13:13:29;4.20;99.90
7598;DHT22;3840;59.32098800;18.06423600;2024-03-08T13:15:54;4.20;99.90
7598;DHT22;3840;59.32098800;18.06423600;2024-03-08T13:18:22;4.30;99.90
7598;DHT22;3840;59.32098800;18.06423600;2024-03-08T13:20:49;4.30;99.90
7598;DHT22;3840;59.32098800;18.06423600;2024-03-08T13:23:17;4.30;99.90
7598;DHT22;3840;59.32098800;18.06423600;2024-03-08T13:25:43;4.30;99.90
7598;DHT22;3840;59.32098800;18.06423600;2024-03-08T13:28:09;4.20;99.90
7598;DHT22;3840;59.32098800;18.06423600;2024-03-08T13:30:36;4.20;99.90
7598;DHT22;3840;59.32098800;18.06423600;2024-03-08T13:33:02;4.20;99.90
7598;DHT22;3840;59.32098800;18.06423600;2024-03-08T13:35:30;4.20;99.90
7598;DHT22;3840;59.32098800;18.06423600;2024-03-08T13:37:58;4.20;99.90
7598;DHT22;3840;59.32098800;18.06423600;2024-03-08T13:40:23;4.20;99.90
7598;DHT22;3840;59.32098800;18.06423600;2024-03-08T13:42:49;4.20;99.90
7598;DHT22;3840;59.32098800;18.06423600;2024-03-08T13:45:15;4.20;99.90
7598;DHT22;3840;59.32098800;18.06423600;2024-03-08T13:47:53;4.20;99.90